createdAt,value
2018-09-05T00:00:06.105Z,19.00
2018-09-05T00:05:09.834Z,21.60
2018-09-05T00:10:12.252Z,24.20
2018-09-05T00:20:24.746Z,24.20
2018-09-05T00:25:27.744Z,23.10
2018-09-05T00:30:29.909Z,24.93
2018-09-05T00:35:32.118Z,26.07
2018-09-05T00:40:34.569Z,28.87
2018-09-05T00:45:37.845Z,26.83
2018-09-05T00:50:40.630Z,26.40
2018-09-05T00:55:42.796Z,25.93
2018-09-05T01:00:45.001Z,23.70
2018-09-05T01:05:47.262Z,25.07
2018-09-05T01:10:51.129Z,24.30
2018-09-05T01:15:53.857Z,24.40
2018-09-05T01:20:56.054Z,25.70
2018-09-05T01:25:58.229Z,26.33
2018-09-05T01:31:00.713Z,29.60
2018-09-05T01:36:10.916Z,37.03
2018-09-05T01:41:14.265Z,27.00
2018-09-05T01:46:16.862Z,26.10
2018-09-05T01:51:19.973Z,28.30
2018-09-05T01:56:22.190Z,27.70
2018-09-05T02:01:24.285Z,29.63
2018-09-05T02:06:27.445Z,26.27
2018-09-05T02:11:29.685Z,28.90
2018-09-05T02:16:31.889Z,25.47
2018-09-05T02:21:34.997Z,27.10
2018-09-05T02:26:37.814Z,27.60
2018-09-05T02:31:40.001Z,30.73
2018-09-05T02:36:43.404Z,28.60
2018-09-05T02:41:48.703Z,26.70
2018-09-05T02:46:51.366Z,26.10
2018-09-05T02:51:53.573Z,29.60
2018-09-05T02:56:56.759Z,30.03
2018-09-05T03:02:00.163Z,28.07
2018-09-05T03:07:03.215Z,25.50
2018-09-05T03:12:05.585Z,25.87
2018-09-05T03:17:08.119Z,25.60
2018-09-05T03:22:10.482Z,30.30
2018-09-05T03:27:13.934Z,30.27
2018-09-05T03:32:17.383Z,28.03
2018-09-05T03:37:21.250Z,31.20
2018-09-05T03:42:24.823Z,27.60
2018-09-05T03:47:28.189Z,27.83
2018-09-05T03:52:31.306Z,29.97
2018-09-05T03:57:35.140Z,29.77
2018-09-05T04:02:37.886Z,27.57
2018-09-05T04:07:40.083Z,27.83
2018-09-05T04:12:42.270Z,29.73
2018-09-05T04:17:44.985Z,28.13
2018-09-05T04:22:48.010Z,28.37
2018-09-05T04:27:51.109Z,26.13
2018-09-05T04:32:53.397Z,28.47
2018-09-05T04:37:55.565Z,32.10
2018-09-05T04:42:57.703Z,33.40
2018-09-05T04:48:01.637Z,31.37
2018-09-05T04:53:06.291Z,29.97
2018-09-05T04:58:09.042Z,37.47
2018-09-05T05:03:11.343Z,27.00
2018-09-05T05:08:13.713Z,29.40
2018-09-05T05:13:16.001Z,27.93
2018-09-05T05:18:19.051Z,28.00
2018-09-05T05:23:21.421Z,30.70
2018-09-05T05:28:23.969Z,29.50
2018-09-05T05:33:26.526Z,26.40
2018-09-05T05:38:28.998Z,27.67
2018-09-05T05:43:33.785Z,24.70
2018-09-05T05:48:35.946Z,24.07
2018-09-05T05:53:40.553Z,22.77
2018-09-05T05:58:44.321Z,27.60
2018-09-05T06:03:48.121Z,26.43
2018-09-05T06:08:50.948Z,27.17
2018-09-05T06:13:53.337Z,21.07
2018-09-05T06:18:57.297Z,23.63
2018-09-05T06:24:00.537Z,20.43
2018-09-05T06:29:03.508Z,25.03
2018-09-05T06:34:06.023Z,22.73
2018-09-05T06:39:09.071Z,19.40
2018-09-05T06:44:12.286Z,20.40
2018-09-05T06:49:16.136Z,25.60
2018-09-05T06:54:19.697Z,24.03
2018-09-05T06:59:23.878Z,22.43
2018-09-05T07:04:28.101Z,18.93
2018-09-05T07:09:31.814Z,19.77
2018-09-05T07:14:35.304Z,21.87
2018-09-05T07:19:41.097Z,19.23
2018-09-05T07:24:43.519Z,21.00
2018-09-05T07:29:47.543Z,21.37
2018-09-05T07:34:51.442Z,18.50
2018-09-05T07:39:53.589Z,19.07
2018-09-05T07:44:56.567Z,20.70
2018-09-05T07:50:12.723Z,18.47
2018-09-05T07:55:16.358Z,21.20
2018-09-05T08:00:21.149Z,22.23
2018-09-05T08:05:23.490Z,18.13
2018-09-05T08:10:25.655Z,20.87
2018-09-05T08:15:27.798Z,22.50
2018-09-05T08:20:30.212Z,19.70
2018-09-05T08:25:36.113Z,19.47
2018-09-05T08:30:39.834Z,19.27
2018-09-05T08:35:42.424Z,16.40
2018-09-05T08:40:44.635Z,21.50
2018-09-05T08:45:47.544Z,21.13
2018-09-05T08:50:49.522Z,18.57
2018-09-05T08:55:51.723Z,20.63
2018-09-05T09:00:53.873Z,17.70
2018-09-05T09:05:56.519Z,16.70
2018-09-05T09:10:58.761Z,30.43
2018-09-05T09:16:00.903Z,18.40
2018-09-05T09:21:03.496Z,15.23
2018-09-05T09:26:06.909Z,18.83
2018-09-05T09:31:10.336Z,17.50
2018-09-05T09:36:12.577Z,15.83
2018-09-05T09:41:15.110Z,17.80
2018-09-05T09:46:17.642Z,15.37
2018-09-05T09:51:22.323Z,12.83
2018-09-05T09:56:24.822Z,14.80
2018-09-05T10:01:33.281Z,15.50
2018-09-05T10:06:39.881Z,19.80
2018-09-05T10:11:48.249Z,16.70
2018-09-05T10:16:56.403Z,15.47
2018-09-05T10:21:58.693Z,18.10
2018-09-05T10:27:01.537Z,15.60
2018-09-05T10:32:03.737Z,18.63
2018-09-05T10:37:05.893Z,15.93
2018-09-05T10:42:08.369Z,20.43
2018-09-05T10:47:10.540Z,18.33
2018-09-05T10:52:12.698Z,15.37
2018-09-05T10:57:14.845Z,16.70
2018-09-05T11:02:17.738Z,16.10
2018-09-05T11:07:20.345Z,19.40
2018-09-05T11:12:22.570Z,15.90
2018-09-05T11:17:24.725Z,16.13
2018-09-05T11:22:27.153Z,17.13
2018-09-05T11:27:29.594Z,15.43
2018-09-05T11:32:31.782Z,22.63
2018-09-05T11:37:34.310Z,18.83
2018-09-05T11:42:36.478Z,14.67
2018-09-05T11:47:38.761Z,14.20
2018-09-05T11:52:41.015Z,13.93
2018-09-05T11:57:44.153Z,17.50
2018-09-05T12:02:46.414Z,15.47
2018-09-05T12:07:48.932Z,16.17
2018-09-05T12:12:51.226Z,14.90
2018-09-05T12:17:53.748Z,15.83
2018-09-05T12:22:56.281Z,14.20
2018-09-05T12:27:58.426Z,14.40
2018-09-05T12:33:00.753Z,13.43
2018-09-05T12:38:03.694Z,17.33
2018-09-05T12:43:06.207Z,12.30
2018-09-05T12:48:08.870Z,11.93
2018-09-05T12:53:11.585Z,15.50
2018-09-05T12:58:14.090Z,14.23
2018-09-05T13:03:16.269Z,12.90
2018-09-05T13:08:18.460Z,12.70
2018-09-05T13:13:20.630Z,14.67
2018-09-05T13:18:22.784Z,16.57
2018-09-05T13:23:24.949Z,14.80
2018-09-05T13:28:27.122Z,11.90
2018-09-05T13:33:29.944Z,11.83
2018-09-05T13:38:32.178Z,10.97
2018-09-05T13:43:34.557Z,10.43
2018-09-05T13:48:36.689Z,13.43
2018-09-05T13:53:38.873Z,11.00
2018-09-05T13:58:41.402Z,10.27
2018-09-05T14:03:43.605Z,12.00
2018-09-05T14:08:45.790Z,12.60
2018-09-05T14:13:47.974Z,11.00
2018-09-05T14:18:50.123Z,10.77
2018-09-05T14:23:52.333Z,14.37
2018-09-05T14:28:55.432Z,11.57
2018-09-05T14:33:59.448Z,10.63
2018-09-05T14:39:01.822Z,14.23
2018-09-05T14:44:04.157Z,11.47
2018-09-05T14:49:06.512Z,14.20
2018-09-05T14:54:08.824Z,9.97
2018-09-05T14:59:11.065Z,10.67
2018-09-05T15:04:13.454Z,11.33
2018-09-05T15:09:16.101Z,12.70
2018-09-05T15:14:18.343Z,9.80
2018-09-05T15:19:20.532Z,10.23
2018-09-05T15:24:22.907Z,14.70
2018-09-05T15:29:25.205Z,9.93
2018-09-05T15:34:27.361Z,13.50
2018-09-05T15:39:29.581Z,12.47
2018-09-05T15:44:31.661Z,16.00
2018-09-05T15:49:33.948Z,10.60
2018-09-05T15:54:36.306Z,9.40
2018-09-05T15:59:38.620Z,9.53
2018-09-05T16:04:40.827Z,9.83
2018-09-05T16:09:42.962Z,8.87
2018-09-05T16:14:45.101Z,10.10
2018-09-05T16:19:47.273Z,9.57
2018-09-05T16:24:50.023Z,13.17
2018-09-05T16:29:52.346Z,15.23
2018-09-05T16:34:54.609Z,15.20
2018-09-05T16:39:56.742Z,9.10
2018-09-05T16:44:59.202Z,8.77
2018-09-05T16:50:01.434Z,10.97
2018-09-05T16:55:03.974Z,9.50
2018-09-05T17:00:06.752Z,12.83
2018-09-05T17:05:08.917Z,9.07
2018-09-05T17:10:11.277Z,9.90
2018-09-05T17:15:13.486Z,10.47
2018-09-05T17:20:15.637Z,10.23
2018-09-05T17:25:18.147Z,9.77
2018-09-05T17:30:21.454Z,20.93
2018-09-05T17:35:23.802Z,11.27
2018-09-05T17:40:26.420Z,9.23
2018-09-05T17:45:32.322Z,10.50
2018-09-05T17:50:35.025Z,9.70
2018-09-05T17:55:37.237Z,9.90
2018-09-05T18:00:40.647Z,13.10
2018-09-05T18:05:43.007Z,10.47
2018-09-05T18:10:45.242Z,11.20
2018-09-05T18:15:47.561Z,9.50
2018-09-05T18:20:49.714Z,11.80
2018-09-05T18:25:52.037Z,9.33
2018-09-05T18:30:54.649Z,11.63
2018-09-05T18:35:56.870Z,9.30
2018-09-05T18:40:59.149Z,10.23
2018-09-05T18:46:01.381Z,11.80
2018-09-05T18:51:03.581Z,10.50
2018-09-05T18:56:07.018Z,12.80
2018-09-05T19:01:09.470Z,16.30
2018-09-05T19:06:11.726Z,13.47
2018-09-05T19:11:13.867Z,10.20
2018-09-05T19:16:16.069Z,11.93
2018-09-05T19:21:18.274Z,14.90
2018-09-05T19:26:20.538Z,13.90
2018-09-05T19:31:22.869Z,11.80
2018-09-05T19:36:25.065Z,16.70
2018-09-05T19:41:27.938Z,12.50
2018-09-05T19:46:33.386Z,13.60
2018-09-05T19:51:35.524Z,12.07
2018-09-05T19:56:37.702Z,13.87
2018-09-05T20:01:39.861Z,13.00
2018-09-05T20:06:42.453Z,11.33
2018-09-05T20:11:45.224Z,10.50
2018-09-05T20:16:47.736Z,15.07
2018-09-05T20:21:49.937Z,10.93
2018-09-05T20:26:52.949Z,15.43
2018-09-05T20:31:56.862Z,9.83
2018-09-05T20:36:59.455Z,12.33
2018-09-05T20:42:01.634Z,10.23
2018-09-05T20:47:04.174Z,12.47
2018-09-05T20:52:06.377Z,13.30
2018-09-05T20:57:08.465Z,11.00
2018-09-05T21:02:11.433Z,10.77
2018-09-05T21:07:13.700Z,15.63
2018-09-05T21:12:15.885Z,11.93
2018-09-05T21:17:19.263Z,11.23
2018-09-05T21:22:23.180Z,14.13
2018-09-05T21:27:25.445Z,12.03
2018-09-05T21:32:27.717Z,10.40
2018-09-05T21:37:30.281Z,14.13
2018-09-05T21:42:32.452Z,11.50
2018-09-05T21:47:34.629Z,12.70
2018-09-05T21:52:36.919Z,11.50
2018-09-05T21:57:39.839Z,12.87
2018-09-05T22:02:41.994Z,13.33
2018-09-05T22:07:44.158Z,12.37
2018-09-05T22:12:48.343Z,14.30
2018-09-05T22:17:53.574Z,15.80
2018-09-05T22:22:57.018Z,13.90
2018-09-05T22:28:01.159Z,13.20
2018-09-05T22:33:04.699Z,11.77
2018-09-05T22:38:06.904Z,13.67
2018-09-05T22:43:20.733Z,15.50
2018-09-05T22:49:53.447Z,16.90
2018-09-05T22:55:16.505Z,13.80
2018-09-05T23:02:49.962Z,17.73
2018-09-05T23:08:57.643Z,15.70
2018-09-05T23:15:10.424Z,27.53
2018-09-05T23:20:31.458Z,17.97
2018-09-05T23:25:35.738Z,15.67
2018-09-05T23:30:39.618Z,17.47
2018-09-05T23:35:41.938Z,16.70
2018-09-05T23:40:44.102Z,19.80
2018-09-05T23:45:46.487Z,24.87
2018-09-05T23:50:48.722Z,21.00
2018-09-05T23:55:50.888Z,19.57
